Time;durP1;ratioP1;P1;durP2;ratioP2;P2;SDS_P1;SDS_P2;PMS_P1;PMS_P2;Temp;Humidity;BMP_temperature;BMP_pressure;BME280_temperature;BME280_humidity;BME280_pressure;Samples;Min_cycle;Max_cycle;Signal;HPM_P1;HPM_P2
2021/03/20 00:00:54;;;;;;;3.23;1.50;;;;;;;-3.74;75.41;102252.86;124114;1102;64921;-78
2021/03/20 00:03:21;;;;;;;4.33;2.20;;;;;;;-3.76;75.89;102245.99;124881;1105;64812;-79
2021/03/20 00:05:48;;;;;;;5.93;1.87;;;;;;;-3.75;75.74;102253.73;123381;1105;64898;-78
2021/03/20 00:08:17;;;;;;;16.57;7.77;;;;;;;-3.74;75.51;102250.27;124679;1105;64966;-78
2021/03/20 00:10:45;;;;;;;8.03;3.40;;;;;;;-3.69;76.07;102257.91;123464;1105;64982;-78
2021/03/20 00:13:12;;;;;;;5.20;1.57;;;;;;;-3.66;75.77;102256.97;123387;1102;65020;-79
2021/03/20 00:15:38;;;;;;;4.53;1.60;;;;;;;-3.62;76.09;102258.58;123459;1105;65683;-81
2021/03/20 00:18:05;;;;;;;3.85;1.45;;;;;;;-3.61;76.08;102260.26;123466;1105;66143;-79
2021/03/20 00:20:36;;;;;;;4.60;1.77;;;;;;;-3.59;75.71;102259.34;123516;1102;65059;-79
2021/03/20 00:23:04;;;;;;;4.00;1.63;;;;;;;-3.58;75.77;102255.00;123442;1105;65389;-78
2021/03/20 00:25:31;;;;;;;4.80;1.17;;;;;;;-3.54;75.92;102251.42;123368;1102;64888;-80
2021/03/20 00:27:58;;;;;;;4.87;1.30;;;;;;;-3.55;75.78;102245.39;123645;1105;64911;-79
2021/03/20 00:30:25;;;;;;;6.03;2.20;;;;;;;-3.54;75.51;102230.67;123604;1102;65230;-79
2021/03/20 00:32:52;;;;;;;3.63;1.70;;;;;;;-3.57;75.16;102226.43;123469;1105;64978;-79
2021/03/20 00:35:22;;;;;;;5.05;1.65;;;;;;;-3.59;75.23;102222.16;123388;1105;64818;-79
2021/03/20 00:37:50;;;;;;;3.63;2.07;;;;;;;-3.64;75.44;102222.30;123418;1105;64978;-79
2021/03/20 00:40:22;;;;;;;3.07;1.43;;;;;;;-3.67;75.32;102230.19;123373;1105;64975;-82
2021/03/20 00:42:48;;;;;;;4.20;2.15;;;;;;;-3.72;75.25;102226.86;123468;1105;65045;-78
2021/03/20 00:45:16;;;;;;;1.90;1.10;;;;;;;-3.79;75.54;102220.17;123414;1103;64885;-80
2021/03/20 00:47:42;;;;;;;5.73;1.50;;;;;;;-3.82;75.89;102226.30;123513;1105;64889;-80
2021/03/20 00:50:11;;;;;;;3.63;1.37;;;;;;;-3.82;75.90;102220.27;123479;1103;65710;-78
2021/03/20 00:52:37;;;;;;;2.93;1.40;;;;;;;-3.84;75.83;102220.31;123437;1105;64937;-79
2021/03/20 00:55:04;;;;;;;2.93;1.20;;;;;;;-3.88;75.75;102229.06;123350;1102;64895;-78
2021/03/20 00:57:30;;;;;;;13.63;4.57;;;;;;;-3.92;75.97;102219.67;123583;1105;64933;-78
2021/03/20 00:59:57;;;;;;;11.87;3.70;;;;;;;-3.92;76.38;102224.86;123507;1102;64867;-79
2021/03/20 01:02:23;;;;;;;5.40;2.20;;;;;;;-3.90;76.46;102233.45;123355;1105;64850;-79
2021/03/20 01:04:50;;;;;;;2.85;1.57;;;;;;;-3.91;76.50;102236.91;123422;1105;64926;-79
2021/03/20 01:07:16;;;;;;;5.20;1.97;;;;;;;-3.91;76.73;102239.50;123329;1105;66135;-77
2021/03/20 01:09:42;;;;;;;26.87;10.10;;;;;;;-3.93;76.34;102234.39;123346;1105;64966;-78
2021/03/20 01:12:08;;;;;;;57.97;15.60;;;;;;;-3.90;76.53;102217.89;123433;1105;65747;-78
2021/03/20 01:14:35;;;;;;;18.10;6.47;;;;;;;-3.85;76.82;102220.34;123331;1105;64886;-79
2021/03/20 01:17:01;;;;;;;15.17;4.23;;;;;;;-3.81;76.93;102232.33;123430;1105;64966;-79
2021/03/20 01:19:28;;;;;;;11.83;3.40;;;;;;;-3.79;76.90;102231.38;123370;1103;65171;-78
2021/03/20 01:21:54;;;;;;;5.30;2.17;;;;;;;-3.73;76.20;102238.98;123397;1102;64940;-78
2021/03/20 01:24:20;;;;;;;8.10;2.17;;;;;;;-3.67;76.41;102247.50;123450;1102;64911;-78
2021/03/20 01:26:47;;;;;;;3.15;1.65;;;;;;;-3.62;76.64;102253.39;123391;1105;64918;-79
2021/03/20 01:29:13;;;;;;;3.40;1.80;;;;;;;-3.58;76.26;102255.00;123454;1102;64937;-79
2021/03/20 01:31:39;;;;;;;2.30;1.33;;;;;;;-3.55;76.40;102258.36;123374;1102;64914;-78
2021/03/20 01:34:06;;;;;;;4.40;1.83;;;;;;;-3.52;76.30;102257.41;123431;1106;64943;-79
2021/03/20 01:36:32;;;;;;;5.13;1.77;;;;;;;-3.50;76.29;102264.25;123448;1102;64950;-78
2021/03/20 01:38:58;;;;;;;3.60;1.05;;;;;;;-3.47;76.08;102258.11;123424;1102;65393;-79
2021/03/20 01:41:27;;;;;;;2.25;1.20;;;;;;;-3.44;75.47;102250.25;123406;1105;66150;-78
2021/03/20 01:43:54;;;;;;;4.90;1.50;;;;;;;-3.42;75.66;102260.56;123491;1102;64962;-78
2021/03/20 01:46:42;;;;;;;1.90;1.10;;;;;;;-3.40;75.46;102257.05;123380;1105;64898;-77
2021/03/20 01:49:24;;;;;;;7.77;1.80;;;;;;;-3.38;75.38;102256.98;123435;1102;64940;-79
2021/03/20 01:52:15;;;;;;;4.03;1.37;;;;;;;-3.40;75.33;102256.18;123336;1102;64914;-78
2021/03/20 01:54:51;;;;;;;2.90;1.23;;;;;;;-3.43;75.26;102259.72;123278;1105;65244;-78
2021/03/20 01:57:23;;;;;;;7.07;1.90;;;;;;;-3.47;74.97;102252.92;123313;1102;65068;-77
2021/03/20 01:59:49;;;;;;;3.23;1.37;;;;;;;-3.52;75.25;102249.63;123444;1102;64905;-78
2021/03/20 02:02:16;;;;;;;4.73;1.47;;;;;;;-3.59;75.43;102250.69;123325;1102;64927;-77
2021/03/20 02:04:42;;;;;;;5.73;1.80;;;;;;;-3.66;75.12;102251.77;123420;1105;64912;-80
2021/03/20 02:07:08;;;;;;;3.97;1.20;;;;;;;-3.73;75.38;102245.92;123426;1105;64931;-79
2021/03/20 02:09:35;;;;;;;2.80;1.73;;;;;;;-3.77;75.52;102246.91;123360;1106;65901;-78
2021/03/20 02:12:19;;;;;;;16.47;4.43;;;;;;;-3.82;75.79;102241.02;123552;1105;64942;-79
2021/03/20 02:14:58;;;;;;;3.93;1.40;;;;;;;-3.83;75.89;102236.70;123446;1105;64914;-79
2021/03/20 02:17:44;;;;;;;4.63;1.73;;;;;;;-3.84;75.85;102238.45;123385;1102;64972;-80
2021/03/20 02:20:25;;;;;;;5.20;1.70;;;;;;;-3.83;76.20;102229.77;123416;1105;64918;-79
2021/03/20 02:23:26;;;;;;;7.20;1.83;;;;;;;-3.81;76.41;102233.17;123433;1105;64923;-79
2021/03/20 02:26:28;;;;;;;3.70;1.70;;;;;;;-3.78;76.40;102230.50;123395;1105;64966;-79
2021/03/20 02:29:12;;;;;;;3.70;1.60;;;;;;;-3.76;76.47;102222.66;123458;1105;66099;-78
2021/03/20 02:31:53;;;;;;;2.93;1.60;;;;;;;-3.75;76.47;102217.44;123457;1102;64917;-78
2021/03/20 02:34:42;;;;;;;3.57;1.63;;;;;;;-3.75;76.79;102222.63;123375;1102;64943;-78
2021/03/20 02:37:25;;;;;;;3.30;1.53;;;;;;;-3.76;76.45;102227.84;123375;1102;64994;-78
2021/03/20 02:40:29;;;;;;;2.40;0.93;;;;;;;-3.84;76.55;102228.09;123482;1105;65264;-79
2021/03/20 02:43:10;;;;;;;4.50;1.20;;;;;;;-3.86;76.63;102227.28;123342;1105;64862;-78
2021/03/20 02:45:41;;;;;;;2.53;1.57;;;;;;;-3.86;76.70;102229.87;123470;1105;65895;-78
2021/03/20 02:48:26;;;;;;;6.00;1.60;;;;;;;-3.88;76.51;102223.88;123350;1105;66472;-78
2021/03/20 02:51:04;;;;;;;6.70;1.60;;;;;;;-3.93;76.44;102215.37;123349;1105;65084;-79
2021/03/20 02:53:59;;;;;;;6.40;1.40;;;;;;;-3.99;76.62;102220.76;123335;1105;65381;-78
2021/03/20 02:56:32;;;;;;;3.50;1.50;;;;;;;-4.03;76.86;102221.73;123409;1105;66107;-80
2021/03/20 02:59:06;;;;;;;6.37;1.27;;;;;;;-4.05;76.66;102218.33;123821;1105;64966;-79
2021/03/20 03:01:35;;;;;;;3.90;1.90;;;;;;;-4.12;76.67;102221.09;124023;1102;65550;-78
2021/03/20 03:04:02;;;;;;;6.73;2.17;;;;;;;-4.17;77.10;102215.17;125595;1105;64763;-78
2021/03/20 03:06:37;;;;;;;3.55;1.50;;;;;;;-4.19;76.90;102210.93;126200;1102;64779;-77
2021/03/20 03:09:15;;;;;;;3.67;1.65;;;;;;;-4.26;76.80;102215.44;123441;1105;64927;-78
2021/03/20 03:12:03;;;;;;;2.87;1.40;;;;;;;-4.31;77.67;102217.31;123525;1105;64887;-77
2021/03/20 03:14:43;;;;;;;5.60;1.80;;;;;;;-4.37;77.33;102214.89;123939;1106;64927;-78
2021/03/20 03:17:10;;;;;;;2.90;1.77;;;;;;;-4.40;77.85;102217.54;123419;1102;65178;-79
2021/03/20 03:19:41;;;;;;;4.53;1.30;;;;;;;-4.40;77.87;102212.36;124146;1105;64914;-79
2021/03/20 03:22:13;;;;;;;6.93;2.07;;;;;;;-4.40;78.10;102210.64;123640;1106;64931;-80
2021/03/20 03:24:42;;;;;;;5.97;2.00;;;;;;;-4.41;78.24;102215.86;123720;1105;64896;-80
2021/03/20 03:27:13;;;;;;;4.70;1.17;;;;;;;-4.44;78.43;102206.44;123816;1105;64883;-80
2021/03/20 03:29:41;;;;;;;3.30;1.60;;;;;;;-4.48;78.61;102207.41;123740;1105;64975;-80
2021/03/20 03:32:30;;;;;;;4.17;1.20;;;;;;;-4.49;78.61;102207.44;123514;1105;64908;-79
2021/03/20 03:35:00;;;;;;;2.73;1.57;;;;;;;-4.52;78.86;102201.45;123406;1106;65126;-79
2021/03/20 03:37:47;;;;;;;2.50;1.50;;;;;;;-4.57;79.01;102195.55;123475;1102;64917;-78
2021/03/20 03:40:30;;;;;;;5.10;1.63;;;;;;;-4.58;79.09;102199.02;123442;1105;65693;-78
2021/03/20 03:42:56;;;;;;;1.80;0.80;;;;;;;-4.58;79.14;102201.61;123380;1104;65000;-78
2021/03/20 03:45:23;;;;;;;4.05;1.82;;;;;;;-4.56;79.89;102206.75;123417;1105;64902;-77
2021/03/20 03:47:50;;;;;;;3.17;1.43;;;;;;;-4.55;80.04;102211.91;123437;1105;64911;-79
2021/03/20 03:50:26;;;;;;;2.60;1.45;;;;;;;-4.57;79.33;102221.45;123605;1102;64876;-79
2021/03/20 03:52:52;;;;;;;4.53;1.90;;;;;;;-4.62;79.43;102223.29;123452;1103;65810;-78
2021/03/20 03:55:19;;;;;;;4.63;2.30;;;;;;;-4.65;79.99;102233.73;123339;1105;64929;-78
2021/03/20 03:57:58;;;;;;;6.17;1.90;;;;;;;-4.68;79.56;102236.39;123352;1105;66190;-79
2021/03/20 04:00:45;;;;;;;6.40;1.63;;;;;;;-4.72;79.73;102243.41;123340;1102;64844;-79
2021/03/20 04:03:33;;;;;;;3.40;1.70;;;;;;;-4.76;80.28;102246.08;125610;1102;64988;-79
2021/03/20 04:06:23;;;;;;;3.83;1.67;;;;;;;-4.78;80.20;102250.45;123466;1102;64892;-79
2021/03/20 04:08:56;;;;;;;7.47;1.90;;;;;;;-4.80;80.14;102252.22;123309;1102;65001;-79
2021/03/20 04:11:52;;;;;;;4.00;1.70;;;;;;;-4.80;80.12;102257.40;123413;1105;64944;-79
2021/03/20 04:14:27;;;;;;;5.70;1.87;;;;;;;-4.82;80.69;102257.46;123317;1102;64912;-79
2021/03/20 04:17:09;;;;;;;3.87;1.43;;;;;;;-4.85;80.09;102261.84;123456;1105;64891;-79
2021/03/20 04:19:47;;;;;;;5.75;1.65;;;;;;;-4.85;80.91;102254.09;123417;1105;64915;-79
2021/03/20 04:22:26;;;;;;;6.13;2.17;;;;;;;-4.88;80.97;102251.59;123294;1104;64851;-78
2021/03/20 04:25:04;;;;;;;2.75;1.85;;;;;;;-4.92;80.22;102246.47;123395;1102;64924;-79
2021/03/20 04:27:37;;;;;;;4.57;1.97;;;;;;;-4.92;81.05;102245.62;123474;1105;64847;-78
2021/03/20 04:30:09;;;;;;;7.10;1.70;;;;;;;-4.92;80.87;102253.39;123476;1102;64911;-79
2021/03/20 04:33:01;;;;;;;8.20;2.07;;;;;;;-4.94;81.09;102258.59;123423;1102;64975;-78
2021/03/20 04:35:36;;;;;;;4.07;1.87;;;;;;;-4.95;81.10;102253.45;123501;1102;64962;-77
2021/03/20 04:38:04;;;;;;;2.73;1.67;;;;;;;-4.93;80.44;102256.84;123484;1105;65017;-78
2021/03/20 04:40:46;;;;;;;3.10;1.80;;;;;;;-4.90;81.28;102254.20;123454;1105;65004;-79
2021/03/20 04:43:19;;;;;;;2.50;1.47;;;;;;;-4.87;80.83;102253.27;123360;1105;65334;-80
2021/03/20 04:45:54;;;;;;;6.80;2.43;;;;;;;-4.83;80.46;102250.56;123533;1105;64959;-79
2021/03/20 04:48:25;;;;;;;5.37;2.27;;;;;;;-4.82;80.95;102243.67;123334;1105;64940;-79
2021/03/20 04:51:03;;;;;;;9.87;2.20;;;;;;;-4.79;81.27;102239.25;123391;1105;64897;-78
2021/03/20 04:53:29;;;;;;;7.33;2.33;;;;;;;-4.73;81.68;102235.67;123343;1105;64873;-78
2021/03/20 04:56:04;;;;;;;3.27;1.70;;;;;;;-4.69;80.80;102226.94;123308;1106;64981;-79
2021/03/20 04:58:41;;;;;;;;;;;;;;;-4.66;81.13;102221.66;123415;1102;66535;-75
2021/03/20 05:01:17;;;;;;;5.07;1.80;;;;;;;-4.62;81.14;102222.45;123418;1103;64921;-77
2021/03/20 05:03:47;;;;;;;6.47;2.17;;;;;;;-4.57;80.78;102212.80;123604;1105;65597;-77
2021/03/20 05:06:20;;;;;;;4.47;2.03;;;;;;;-4.52;80.77;102209.22;123522;1105;65907;-77
2021/03/20 05:08:57;;;;;;;7.43;2.13;;;;;;;-4.43;80.79;102209.87;123584;1103;64888;-77
2021/03/20 05:11:38;;;;;;;4.50;1.50;;;;;;;-4.37;80.66;102212.30;123441;1105;65352;-76
2021/03/20 05:14:13;;;;;;;5.03;1.80;;;;;;;-4.32;80.43;102215.59;123367;1102;65731;-78
2021/03/20 05:16:50;;;;;;;;;;;;;;;-4.27;80.43;102218.94;123464;1102;64918;-77
2021/03/20 05:19:19;;;;;;;5.60;1.80;;;;;;;-4.24;79.65;102217.99;123400;1103;65217;-77
2021/03/20 05:21:50;;;;;;;5.67;1.87;;;;;;;-4.24;80.04;102212.81;123690;1103;64902;-77
2021/03/20 05:24:20;;;;;;;4.23;2.00;;;;;;;-4.27;79.97;102208.57;123474;1105;65569;-77
2021/03/20 05:26:47;;;;;;;4.90;2.00;;;;;;;-4.26;80.05;102210.25;123411;1105;64988;-77
2021/03/20 05:29:14;;;;;;;6.00;1.93;;;;;;;-4.25;79.96;102206.79;123429;1102;64995;-77
2021/03/20 05:31:40;;;;;;;8.93;3.23;;;;;;;-4.23;79.58;102210.19;123443;1102;65308;-77
2021/03/20 05:34:25;;;;;;;4.40;1.83;;;;;;;-4.18;80.17;102213.48;123409;1102;64889;-76
2021/03/20 05:36:53;;;;;;;3.00;1.87;;;;;;;-4.14;79.73;102215.10;123349;1102;64891;-77
2021/03/20 05:39:20;;;;;;;5.47;2.23;;;;;;;-4.09;79.80;102220.16;123335;1105;65017;-76
2021/03/20 05:42:13;;;;;;;8.43;2.23;;;;;;;-4.02;80.00;102218.23;123717;1105;64931;-77
2021/03/20 05:44:54;;;;;;;4.37;1.87;;;;;;;-3.97;79.38;102221.56;123386;1105;64918;-77
2021/03/20 05:47:29;;;;;;;5.03;2.17;;;;;;;-3.91;79.40;102222.23;123367;1105;64892;-77
2021/03/20 05:50:01;;;;;;;4.00;2.02;;;;;;;-3.87;79.26;102233.34;123373;1106;65674;-77
2021/03/20 05:52:48;;;;;;;3.53;2.00;;;;;;;-3.82;79.35;102225.45;123450;1106;65215;-76
2021/03/20 05:55:23;;;;;;;3.17;1.60;;;;;;;-3.79;79.33;102231.38;123365;1104;64885;-76
2021/03/20 05:57:58;;;;;;;6.27;1.80;;;;;;;-3.75;79.39;102238.18;123472;1102;64914;-79
2021/03/20 06:00:46;;;;;;;3.97;1.50;;;;;;;-3.67;79.21;102244.91;123422;1105;64969;-77
2021/03/20 06:03:31;;;;;;;3.63;1.57;;;;;;;-3.62;78.90;102253.39;123872;1102;64891;-77
2021/03/20 06:06:37;;;;;;;4.63;1.77;;;;;;;-3.50;79.36;102255.62;123393;1105;65027;-77
2021/03/20 06:09:25;;;;;;;6.40;1.70;;;;;;;-3.42;78.60;102256.25;123449;1102;65301;-78
2021/03/20 06:12:11;;;;;;;2.00;1.47;;;;;;;-3.37;78.83;102251.76;123366;1102;64924;-78
2021/03/20 06:15:10;;;;;;;4.07;2.00;;;;;;;-3.23;78.92;102258.27;123408;1102;64834;-79
2021/03/20 06:17:51;;;;;;;4.13;1.77;;;;;;;-3.04;78.88;102259.38;123401;1103;64881;-78
2021/03/20 06:20:48;;;;;;;4.70;2.13;;;;;;;-2.84;78.40;102255.32;123408;1102;64894;-78
2021/03/20 06:23:20;;;;;;;3.23;1.80;;;;;;;-2.64;78.42;102250.30;123345;1102;64895;-79
2021/03/20 06:25:56;;;;;;;2.20;1.47;;;;;;;-2.47;78.00;102258.36;123295;1102;65961;-78
2021/03/20 06:28:31;;;;;;;4.43;2.07;;;;;;;-2.34;78.24;102238.03;123352;1105;65632;-78
2021/03/20 06:31:02;;;;;;;5.53;1.70;;;;;;;-2.24;76.44;102248.09;123506;1105;65690;-79
2021/03/20 06:33:54;;;;;;;4.83;2.00;;;;;;;-2.13;76.85;102262.39;123355;1105;65067;-78
2021/03/20 06:36:25;;;;;;;3.80;1.63;;;;;;;-2.02;75.18;102263.77;123610;1105;65711;-78
2021/03/20 06:39:07;;;;;;;6.80;2.40;;;;;;;-1.99;74.46;102254.11;123483;1103;65221;-78
2021/03/20 06:41:42;;;;;;;8.53;2.13;;;;;;;-1.91;74.52;102261.66;123629;1105;64883;-79
2021/03/20 06:44:29;;;;;;;;;;;;;;;-1.81;75.18;102262.14;123453;1106;64888;-76
2021/03/20 06:46:57;;;;;;;3.55;1.65;;;;;;;-1.71;75.45;102256.55;123533;1102;64940;-78
2021/03/20 06:49:35;;;;;;;4.50;1.80;;;;;;;-1.50;75.52;102267.91;123521;1106;64892;-78
2021/03/20 06:52:05;;;;;;;4.93;1.70;;;;;;;-1.34;75.56;102264.70;123722;1105;64914;-77
2021/03/20 06:54:32;;;;;;;6.50;2.10;;;;;;;-1.19;73.98;102265.87;123684;1103;65998;-77
2021/03/20 06:57:01;;;;;;;5.07;1.93;;;;;;;-1.08;73.73;102268.92;123607;1102;65008;-78
2021/03/20 06:59:27;;;;;;;8.15;2.65;;;;;;;-0.99;72.53;102278.13;123426;1102;64976;-78
2021/03/20 07:02:22;;;;;;;3.80;2.03;;;;;;;-0.94;72.93;102278.77;123389;1101;64912;-76
2021/03/20 07:05:18;;;;;;;;;;;;;;;-0.91;71.83;102276.06;123453;1102;64870;-78
2021/03/20 07:07:59;;;;;;;7.90;2.30;;;;;;;-0.93;72.28;102277.87;123151;1105;65604;-79
2021/03/20 07:10:36;;;;;;;3.63;1.73;;;;;;;-0.93;71.39;102294.34;123449;1102;65308;-78
2021/03/20 07:13:06;;;;;;;6.43;2.20;;;;;;;-0.88;72.80;102281.13;123451;1105;65020;-79
2021/03/20 07:15:32;;;;;;;3.95;2.00;;;;;;;-0.83;72.13;102285.27;123465;1105;64886;-77
2021/03/20 07:18:29;;;;;;;6.23;2.17;;;;;;;-0.83;73.17;102290.47;123353;1102;64994;-76
2021/03/20 07:20:56;;;;;;;7.40;2.50;;;;;;;-0.80;72.04;102291.26;123462;1104;64834;-79
2021/03/20 07:23:23;;;;;;;10.13;1.97;;;;;;;-0.68;72.33;102288.13;123383;1105;66126;-76
2021/03/20 07:26:06;;;;;;;5.10;1.80;;;;;;;-0.59;71.58;102287.77;123459;1102;64914;-78
2021/03/20 07:28:33;;;;;;;6.23;1.97;;;;;;;-0.58;71.43;102283.40;123493;1105;64892;-78
2021/03/20 07:30:59;;;;;;;5.57;2.33;;;;;;;-0.54;71.37;102285.81;123366;1105;64914;-77
2021/03/20 07:33:29;;;;;;;7.37;2.87;;;;;;;-0.48;72.98;102279.50;123423;1103;64914;-77
2021/03/20 07:36:41;;;;;;;5.27;2.60;;;;;;;-0.41;72.38;102278.31;123401;1102;65712;-78
2021/03/20 07:39:18;;;;;;;4.40;1.87;;;;;;;-0.30;71.54;102277.86;123782;1103;64904;-77
2021/03/20 07:41:54;;;;;;;5.67;2.20;;;;;;;-0.24;71.36;102277.61;123443;1102;64866;-76
2021/03/20 07:44:55;;;;;;;3.17;1.47;;;;;;;-0.13;69.84;102275.37;123439;1102;65675;-79
2021/03/20 07:47:25;;;;;;;2.53;1.20;;;;;;;-0.09;69.00;102276.93;123442;1106;65703;-78
2021/03/20 07:50:18;;;;;;;4.63;1.60;;;;;;;-0.05;67.64;102275.89;123644;1105;64956;-78
2021/03/20 07:53:14;;;;;;;2.33;1.43;;;;;;;0.03;66.93;102279.94;123291;1105;64895;-77
2021/03/20 07:55:58;;;;;;;3.73;1.87;;;;;;;0.06;66.63;102283.23;123396;1102;64989;-77
2021/03/20 07:58:43;;;;;;;5.13;1.40;;;;;;;0.08;65.49;102276.19;123741;1106;64895;-76
2021/03/20 08:01:13;;;;;;;;;;;;;;;0.13;66.40;102271.63;123428;1104;65223;-77
2021/03/20 08:04:02;;;;;;;4.57;2.37;;;;;;;0.13;65.58;102273.41;123986;1105;65007;-76
2021/03/20 08:06:44;;;;;;;3.47;2.10;;;;;;;0.08;65.39;102276.19;123565;1105;65342;-77
2021/03/20 08:09:13;;;;;;;3.50;1.73;;;;;;;0.10;66.15;102281.35;123450;1105;64940;-77
2021/03/20 08:11:39;;;;;;;4.90;1.77;;;;;;;0.10;65.43;102271.75;123444;1102;65396;-76
2021/03/20 08:14:24;;;;;;;6.10;1.70;;;;;;;0.14;64.95;102282.91;123439;1105;64947;-77
2021/03/20 08:16:51;;;;;;;3.85;2.15;;;;;;;0.21;64.81;102284.32;123831;1102;64943;-77
2021/03/20 08:19:19;;;;;;;8.10;1.77;;;;;;;0.32;64.48;102282.09;123424;1102;64927;-76
2021/03/20 08:22:14;;;;;;;3.97;2.10;;;;;;;0.35;62.40;102276.72;123519;1105;64914;-76
2021/03/20 08:25:12;;;;;;;4.80;1.83;;;;;;;0.48;62.35;102277.01;123381;1105;64911;-77
2021/03/20 08:27:47;;;;;;;3.83;1.70;;;;;;;0.54;61.39;102274.12;123447;1105;64888;-77
2021/03/20 08:30:24;;;;;;;5.00;2.03;;;;;;;0.61;61.39;102266.84;123413;1103;64911;-75
2021/03/20 08:33:01;;;;;;;3.33;1.50;;;;;;;0.64;59.74;102271.94;123408;1101;65049;-75
2021/03/20 08:36:00;;;;;;;2.77;1.57;;;;;;;0.73;60.75;102271.50;123529;1100;64921;-77
2021/03/20 08:38:35;;;;;;;6.43;1.80;;;;;;;0.83;58.79;102265.83;123395;1102;64985;-76
2021/03/20 08:41:19;;;;;;;3.13;1.63;;;;;;;0.88;58.50;102263.86;123401;1102;64912;-76
2021/03/20 08:44:03;;;;;;;2.30;1.17;;;;;;;0.92;59.20;102265.41;123774;1104;65226;-75
2021/03/20 08:46:55;;;;;;;6.13;3.07;;;;;;;0.97;58.34;102258.18;123410;1102;65042;-76
2021/03/20 08:49:48;;;;;;;5.80;1.70;;;;;;;0.99;58.46;102258.95;123413;1102;64914;-77
2021/03/20 08:52:46;;;;;;;3.40;1.47;;;;;;;0.99;57.37;102261.56;123417;1105;65225;-76
2021/03/20 08:55:46;;;;;;;3.13;0.93;;;;;;;1.04;57.59;102251.72;123393;1105;64872;-75
2021/03/20 08:58:49;;;;;;;5.73;1.40;;;;;;;1.11;56.63;102245.30;123390;1105;64908;-76
2021/03/20 09:01:28;;;;;;;3.37;1.87;;;;;;;1.21;56.13;102251.77;123397;1105;66112;-76
2021/03/20 09:04:00;;;;;;;5.90;1.90;;;;;;;1.35;56.42;102239.77;123497;1102;64955;-75
2021/03/20 09:06:52;;;;;;;3.00;1.33;;;;;;;1.46;56.56;102237.45;123535;1105;65285;-74
2021/03/20 09:09:24;;;;;;;4.30;2.23;;;;;;;1.58;55.56;102249.07;123375;1102;64909;-77
2021/03/20 09:11:58;;;;;;;2.60;1.50;;;;;;;1.63;54.09;102245.28;123415;1105;64908;-76
2021/03/20 09:14:37;;;;;;;3.90;1.57;;;;;;;1.69;54.07;102246.73;123391;1102;64936;-76
2021/03/20 09:17:08;;;;;;;3.90;1.30;;;;;;;1.70;51.34;102255.42;123429;1102;65758;-76
2021/03/20 09:19:39;;;;;;;3.33;1.20;;;;;;;1.72;52.77;102257.06;123385;1105;65014;-77
2021/03/20 09:22:10;;;;;;;1.60;0.70;;;;;;;1.74;52.03;102257.84;123405;1102;65217;-76
2021/03/20 09:24:46;;;;;;;3.83;1.10;;;;;;;1.80;51.85;102262.72;123336;1105;65417;-76
2021/03/20 09:27:13;;;;;;;2.10;1.30;;;;;;;1.92;52.29;102261.25;123324;1102;65020;-77
2021/03/20 09:30:16;;;;;;;2.77;1.23;;;;;;;1.96;51.80;102262.78;123393;1102;64902;-77
2021/03/20 09:32:48;;;;;;;3.10;1.30;;;;;;;2.09;50.69;102273.45;123417;1102;65037;-75
2021/03/20 09:35:22;;;;;;;4.47;1.60;;;;;;;2.22;50.45;102271.03;123448;1102;64918;-76
2021/03/20 09:37:52;;;;;;;1.40;0.60;;;;;;;2.37;48.46;102275.44;123418;1103;64901;-77
2021/03/20 09:40:40;;;;;;;2.00;0.77;;;;;;;2.48;48.99;102269.62;123423;1105;64998;-76
2021/03/20 09:43:23;;;;;;;2.37;1.20;;;;;;;2.67;48.99;102272.08;123325;1106;64978;-76
2021/03/20 09:46:21;;;;;;;;;;;;;;;2.81;46.87;102272.16;123351;1102;64922;-76
2021/03/20 09:48:48;;;;;;;2.10;0.90;;;;;;;2.91;46.66;102261.16;123481;1102;64969;-76
2021/03/20 09:51:59;;;;;;;1.60;1.07;;;;;;;2.99;46.25;102262.41;123408;1102;64846;-77
2021/03/20 09:54:30;;;;;;;2.73;0.90;;;;;;;2.99;44.13;102261.56;123390;1105;64921;-76
2021/03/20 09:57:06;;;;;;;1.77;0.73;;;;;;;2.95;44.67;102262.67;123317;1102;65646;-76
2021/03/20 09:59:33;;;;;;;3.70;0.83;;;;;;;2.94;41.71;102253.97;123321;1105;64915;-76
2021/03/20 10:02:03;;;;;;;2.13;0.70;;;;;;;2.84;41.19;102250.17;123367;1102;64892;-77
2021/03/20 10:04:37;;;;;;;1.87;1.13;;;;;;;2.82;40.68;102252.88;123574;1105;64888;-77
2021/03/20 10:07:37;;;;;;;4.87;1.50;;;;;;;2.82;40.54;102252.88;123355;1105;64940;-76
2021/03/20 10:10:10;;;;;;;2.03;1.10;;;;;;;2.75;41.09;102254.16;123392;1105;66109;-76
2021/03/20 10:12:42;;;;;;;2.60;0.60;;;;;;;2.67;40.54;102248.49;123393;1105;65681;-76
2021/03/20 10:15:13;;;;;;;1.30;0.40;;;;;;;2.73;39.57;102245.53;123458;1105;64898;-74
2021/03/20 10:18:04;;;;;;;1.30;0.50;;;;;;;2.72;37.83;102243.86;123479;1102;64823;-76
2021/03/20 10:20:51;;;;;;;1.57;0.60;;;;;;;2.81;38.85;102251.20;123297;1102;64927;-78
2021/03/20 10:23:42;;;;;;;1.70;0.67;;;;;;;2.96;38.89;102240.78;123201;1103;64908;-77
2021/03/20 10:26:24;;;;;;;0.43;0.37;;;;;;;3.15;38.55;102235.34;123395;1105;64937;-77
2021/03/20 10:28:57;;;;;;;2.57;0.70;;;;;;;3.34;38.14;102235.11;123397;1102;64834;-75
2021/03/20 10:31:25;;;;;;;1.07;0.50;;;;;;;3.48;37.82;102242.98;123449;1102;65712;-75
2021/03/20 10:34:06;;;;;;;0.77;0.50;;;;;;;3.55;37.33;102227.72;123512;1106;64953;-76
2021/03/20 10:36:39;;;;;;;0.73;0.40;;;;;;;3.79;37.48;102228.05;123429;1105;65670;-76
2021/03/20 10:39:35;;;;;;;0.73;0.40;;;;;;;3.90;36.96;102220.36;123482;1102;65932;-78
2021/03/20 10:42:08;;;;;;;1.45;0.70;;;;;;;4.04;36.51;102220.36;123449;1102;65719;-76
2021/03/20 10:44:40;;;;;;;0.60;0.40;;;;;;;4.19;35.73;102212.48;123392;1102;64923;-77
2021/03/20 10:47:12;;;;;;;1.23;0.60;;;;;;;4.24;35.46;102216.48;123447;1102;65074;-76
2021/03/20 10:49:51;;;;;;;0.80;0.50;;;;;;;4.40;35.35;102210.25;123382;1102;64965;-76
2021/03/20 10:52:25;;;;;;;1.30;0.30;;;;;;;4.49;34.65;102199.17;123392;1105;64976;-75
2021/03/20 10:54:55;;;;;;;1.50;0.57;;;;;;;4.51;34.89;102212.23;123369;1105;64895;-77
2021/03/20 10:57:25;;;;;;;1.10;0.60;;;;;;;4.54;35.47;102196.25;123480;1102;64917;-77
2021/03/20 10:59:52;;;;;;;0.40;0.40;;;;;;;4.35;33.91;102202.66;123363;1105;64995;-75
2021/03/20 11:02:30;;;;;;;1.67;0.90;;;;;;;4.22;34.64;102199.14;123394;1102;64923;-76
2021/03/20 11:05:14;;;;;;;2.37;0.87;;;;;;;4.26;35.05;102198.00;123449;1105;65224;-77
2021/03/20 11:07:50;;;;;;;2.23;0.50;;;;;;;4.33;35.40;102183.53;123516;1105;64844;-76
2021/03/20 11:10:25;;;;;;;2.45;0.70;;;;;;;4.42;34.02;102192.61;123384;1105;64956;-78
2021/03/20 11:12:54;;;;;;;2.00;0.70;;;;;;;4.48;35.27;102185.20;123530;1103;64931;-76
2021/03/20 11:15:27;;;;;;;2.00;0.60;;;;;;;4.76;35.06;102182.55;123443;1105;64891;-76
2021/03/20 11:17:58;;;;;;;1.70;0.83;;;;;;;5.03;34.87;102179.89;123344;1102;64914;-76
2021/03/20 11:20:40;;;;;;;1.43;0.50;;;;;;;5.33;34.73;102173.51;126334;1105;62520;-76
2021/03/20 11:23:07;;;;;;;1.17;0.53;;;;;;;5.55;34.44;102172.87;123965;1102;64934;-76
2021/03/20 11:25:40;;;;;;;4.07;2.37;;;;;;;5.63;34.54;102168.78;123351;1105;65133;-74
2021/03/20 11:28:15;;;;;;;4.10;1.20;;;;;;;5.54;33.62;102160.67;123428;1105;64901;-77
2021/03/20 11:30:45;;;;;;;2.60;1.10;;;;;;;5.55;34.19;102162.34;123438;1102;64972;-77
2021/03/20 11:33:21;;;;;;;1.10;0.70;;;;;;;5.37;33.85;102153.94;123425;1105;64972;-76
2021/03/20 11:35:50;;;;;;;2.87;0.80;;;;;;;5.36;33.77;102152.27;123698;1105;64880;-75
2021/03/20 11:38:18;;;;;;;2.73;0.80;;;;;;;5.40;34.25;102153.70;123460;1102;65046;-76
2021/03/20 11:41:08;;;;;;;2.40;0.80;;;;;;;5.59;34.84;102148.02;123491;1102;64998;-76
2021/03/20 11:44:04;;;;;;;3.60;1.00;;;;;;;5.72;32.80;102140.97;123438;1102;64944;-77
2021/03/20 11:46:36;;;;;;;0.93;0.50;;;;;;;5.79;32.79;102136.11;123223;1105;64892;-76
2021/03/20 11:49:20;;;;;;;3.27;1.03;;;;;;;5.78;32.18;102135.28;123521;1106;64895;-76
2021/03/20 11:51:49;;;;;;;2.20;0.78;;;;;;;5.83;33.30;102119.15;123425;1102;64940;-76
2021/03/20 11:54:26;;;;;;;2.33;0.50;;;;;;;5.99;32.50;102122.38;123424;1102;64969;-75
2021/03/20 11:56:59;;;;;;;2.03;1.00;;;;;;;6.06;32.08;102118.37;123364;1105;64908;-77
2021/03/20 11:59:33;;;;;;;2.13;0.90;;;;;;;6.09;31.62;102104.97;123535;1102;64860;-77
2021/03/20 12:01:59;;;;;;;2.47;1.20;;;;;;;6.22;31.75;102109.36;123400;1102;64899;-78
2021/03/20 12:04:29;;;;;;;1.70;0.63;;;;;;;6.40;30.86;102102.75;123399;1102;65072;-77